sensor_id;sensor_type;location;lat;lon;timestamp;P1;durP1;ratioP1;P2;durP2;ratioP2
10045;SDS011;5063;50.878;4.742;2022-08-27T00:02:06;4.47;;;2.50;;
10045;SDS011;5063;50.878;4.742;2022-08-27T00:04:33;3.77;;;2.47;;
10045;SDS011;5063;50.878;4.742;2022-08-27T00:06:59;6.40;;;2.67;;
10045;SDS011;5063;50.878;4.742;2022-08-27T00:09:26;5.17;;;2.53;;
10045;SDS011;5063;50.878;4.742;2022-08-27T00:11:53;8.30;;;2.43;;
10045;SDS011;5063;50.878;4.742;2022-08-27T00:14:19;6.33;;;3.00;;
10045;SDS011;5063;50.878;4.742;2022-08-27T00:16:45;3.73;;;2.70;;
10045;SDS011;5063;50.878;4.742;2022-08-27T00:19:11;5.17;;;2.30;;
10045;SDS011;5063;50.878;4.742;2022-08-27T00:21:36;6.47;;;2.67;;
10045;SDS011;5063;50.878;4.742;2022-08-27T00:24:02;5.73;;;2.70;;
10045;SDS011;5063;50.878;4.742;2022-08-27T00:26:28;3.73;;;2.80;;
10045;SDS011;5063;50.878;4.742;2022-08-27T00:28:55;7.47;;;3.80;;
10045;SDS011;5063;50.878;4.742;2022-08-27T00:31:21;9.50;;;3.73;;
10045;SDS011;5063;50.878;4.742;2022-08-27T00:33:47;4.37;;;2.57;;
10045;SDS011;5063;50.878;4.742;2022-08-27T00:36:13;4.47;;;2.67;;
10045;SDS011;5063;50.878;4.742;2022-08-27T00:38:39;10.63;;;4.37;;
10045;SDS011;5063;50.878;4.742;2022-08-27T00:41:06;12.40;;;4.80;;
10045;SDS011;5063;50.878;4.742;2022-08-27T00:43:53;7.77;;;3.97;;
10045;SDS011;5063;50.878;4.742;2022-08-27T00:46:32;8.37;;;4.23;;
10045;SDS011;5063;50.878;4.742;2022-08-27T00:49:04;11.47;;;4.80;;
10045;SDS011;5063;50.878;4.742;2022-08-27T00:51:34;6.00;;;3.10;;
10045;SDS011;5063;50.878;4.742;2022-08-27T00:54:01;7.63;;;4.37;;
10045;SDS011;5063;50.878;4.742;2022-08-27T00:56:30;6.27;;;2.97;;
10045;SDS011;5063;50.878;4.742;2022-08-27T00:59:00;3.03;;;2.33;;
10045;SDS011;5063;50.878;4.742;2022-08-27T01:01:28;4.20;;;2.57;;
10045;SDS011;5063;50.878;4.742;2022-08-27T01:03:56;4.13;;;2.90;;
10045;SDS011;5063;50.878;4.742;2022-08-27T01:06:25;8.67;;;2.93;;
10045;SDS011;5063;50.878;4.742;2022-08-27T01:08:59;4.97;;;2.93;;
10045;SDS011;5063;50.878;4.742;2022-08-27T01:11:31;6.00;;;2.80;;
10045;SDS011;5063;50.878;4.742;2022-08-27T01:13:57;5.87;;;3.13;;
10045;SDS011;5063;50.878;4.742;2022-08-27T01:16:24;4.87;;;2.93;;
10045;SDS011;5063;50.878;4.742;2022-08-27T01:18:53;3.67;;;2.50;;
10045;SDS011;5063;50.878;4.742;2022-08-27T01:21:35;2.97;;;2.50;;
10045;SDS011;5063;50.878;4.742;2022-08-27T01:26:53;8.10;;;2.83;;
10045;SDS011;5063;50.878;4.742;2022-08-27T01:29:19;8.53;;;3.63;;
10045;SDS011;5063;50.878;4.742;2022-08-27T01:31:45;4.97;;;3.30;;
10045;SDS011;5063;50.878;4.742;2022-08-27T01:34:12;4.73;;;2.80;;
10045;SDS011;5063;50.878;4.742;2022-08-27T01:36:37;5.30;;;2.97;;
10045;SDS011;5063;50.878;4.742;2022-08-27T01:39:04;5.33;;;2.93;;
10045;SDS011;5063;50.878;4.742;2022-08-27T01:41:30;6.43;;;2.93;;
10045;SDS011;5063;50.878;4.742;2022-08-27T01:43:55;6.70;;;2.97;;
10045;SDS011;5063;50.878;4.742;2022-08-27T01:46:22;6.90;;;2.90;;
10045;SDS011;5063;50.878;4.742;2022-08-27T01:48:49;7.53;;;3.13;;
10045;SDS011;5063;50.878;4.742;2022-08-27T01:51:15;4.97;;;2.67;;
10045;SDS011;5063;50.878;4.742;2022-08-27T01:53:40;3.87;;;3.20;;
10045;SDS011;5063;50.878;4.742;2022-08-27T01:56:06;3.73;;;2.77;;
10045;SDS011;5063;50.878;4.742;2022-08-27T01:58:32;5.70;;;2.63;;
10045;SDS011;5063;50.878;4.742;2022-08-27T02:00:59;5.87;;;2.93;;
10045;SDS011;5063;50.878;4.742;2022-08-27T02:03:29;7.00;;;3.17;;
10045;SDS011;5063;50.878;4.742;2022-08-27T02:05:56;5.40;;;2.90;;
10045;SDS011;5063;50.878;4.742;2022-08-27T02:08:22;6.53;;;3.13;;
10045;SDS011;5063;50.878;4.742;2022-08-27T02:10:48;7.77;;;3.50;;
10045;SDS011;5063;50.878;4.742;2022-08-27T02:13:15;5.70;;;3.17;;
10045;SDS011;5063;50.878;4.742;2022-08-27T02:15:42;6.47;;;3.80;;
10045;SDS011;5063;50.878;4.742;2022-08-27T02:18:09;5.00;;;3.33;;
10045;SDS011;5063;50.878;4.742;2022-08-27T02:20:36;4.77;;;3.00;;
10045;SDS011;5063;50.878;4.742;2022-08-27T02:23:02;8.40;;;3.27;;
10045;SDS011;5063;50.878;4.742;2022-08-27T02:25:28;6.17;;;3.23;;
10045;SDS011;5063;50.878;4.742;2022-08-27T02:27:55;4.03;;;2.70;;
10045;SDS011;5063;50.878;4.742;2022-08-27T02:30:24;5.03;;;3.10;;
10045;SDS011;5063;50.878;4.742;2022-08-27T02:32:50;5.43;;;2.80;;
10045;SDS011;5063;50.878;4.742;2022-08-27T02:35:17;5.30;;;3.57;;
10045;SDS011;5063;50.878;4.742;2022-08-27T02:37:44;4.93;;;2.80;;
10045;SDS011;5063;50.878;4.742;2022-08-27T02:40:11;5.50;;;2.87;;
10045;SDS011;5063;50.878;4.742;2022-08-27T02:42:42;5.30;;;3.30;;
10045;SDS011;5063;50.878;4.742;2022-08-27T02:45:09;4.50;;;2.57;;
10045;SDS011;5063;50.878;4.742;2022-08-27T02:47:35;4.53;;;2.63;;
10045;SDS011;5063;50.878;4.742;2022-08-27T02:50:01;5.57;;;3.07;;
10045;SDS011;5063;50.878;4.742;2022-08-27T02:52:27;5.07;;;2.70;;
10045;SDS011;5063;50.878;4.742;2022-08-27T02:54:54;6.13;;;2.77;;
10045;SDS011;5063;50.878;4.742;2022-08-27T02:57:21;4.53;;;2.70;;
10045;SDS011;5063;50.878;4.742;2022-08-27T02:59:47;5.70;;;2.87;;
10045;SDS011;5063;50.878;4.742;2022-08-27T03:02:13;4.27;;;3.57;;
10045;SDS011;5063;50.878;4.742;2022-08-27T03:04:39;6.53;;;2.77;;
10045;SDS011;5063;50.878;4.742;2022-08-27T03:07:05;3.40;;;2.60;;
10045;SDS011;5063;50.878;4.742;2022-08-27T03:09:31;7.27;;;2.87;;
10045;SDS011;5063;50.878;4.742;2022-08-27T03:11:57;3.13;;;2.77;;
10045;SDS011;5063;50.878;4.742;2022-08-27T03:14:23;3.43;;;2.73;;
10045;SDS011;5063;50.878;4.742;2022-08-27T03:16:49;6.00;;;2.80;;
10045;SDS011;5063;50.878;4.742;2022-08-27T03:19:14;6.87;;;3.20;;
10045;SDS011;5063;50.878;4.742;2022-08-27T03:21:40;5.77;;;3.30;;
10045;SDS011;5063;50.878;4.742;2022-08-27T03:24:06;4.20;;;3.00;;
10045;SDS011;5063;50.878;4.742;2022-08-27T03:26:32;5.57;;;2.83;;
10045;SDS011;5063;50.878;4.742;2022-08-27T03:28:58;6.67;;;2.80;;
10045;SDS011;5063;50.878;4.742;2022-08-27T03:31:24;7.57;;;2.87;;
10045;SDS011;5063;50.878;4.742;2022-08-27T03:33:52;4.23;;;3.03;;
10045;SDS011;5063;50.878;4.742;2022-08-27T03:36:31;4.77;;;3.30;;
10045;SDS011;5063;50.878;4.742;2022-08-27T03:38:57;5.90;;;3.33;;
10045;SDS011;5063;50.878;4.742;2022-08-27T03:41:23;5.80;;;3.07;;
10045;SDS011;5063;50.878;4.742;2022-08-27T03:43:50;6.67;;;3.30;;
10045;SDS011;5063;50.878;4.742;2022-08-27T03:46:19;4.97;;;2.90;;
10045;SDS011;5063;50.878;4.742;2022-08-27T03:48:46;5.30;;;3.43;;
10045;SDS011;5063;50.878;4.742;2022-08-27T03:51:12;3.83;;;3.07;;
10045;SDS011;5063;50.878;4.742;2022-08-27T03:53:40;4.47;;;2.80;;
10045;SDS011;5063;50.878;4.742;2022-08-27T03:56:07;6.10;;;3.40;;
10045;SDS011;5063;50.878;4.742;2022-08-27T03:58:34;6.20;;;3.60;;
10045;SDS011;5063;50.878;4.742;2022-08-27T04:01:01;4.90;;;3.43;;
10045;SDS011;5063;50.878;4.742;2022-08-27T04:03:29;4.83;;;3.03;;
10045;SDS011;5063;50.878;4.742;2022-08-27T04:05:55;8.53;;;4.27;;
10045;SDS011;5063;50.878;4.742;2022-08-27T04:08:22;7.77;;;3.93;;
10045;SDS011;5063;50.878;4.742;2022-08-27T04:10:48;5.90;;;4.10;;
10045;SDS011;5063;50.878;4.742;2022-08-27T04:13:14;4.73;;;3.50;;
10045;SDS011;5063;50.878;4.742;2022-08-27T04:15:45;11.33;;;4.20;;
10045;SDS011;5063;50.878;4.742;2022-08-27T04:18:14;8.07;;;3.83;;
10045;SDS011;5063;50.878;4.742;2022-08-27T04:20:44;7.33;;;3.93;;
10045;SDS011;5063;50.878;4.742;2022-08-27T04:23:11;6.17;;;3.83;;
10045;SDS011;5063;50.878;4.742;2022-08-27T04:25:41;5.73;;;3.70;;
10045;SDS011;5063;50.878;4.742;2022-08-27T04:28:07;7.20;;;4.57;;
10045;SDS011;5063;50.878;4.742;2022-08-27T04:30:42;6.77;;;4.00;;
10045;SDS011;5063;50.878;4.742;2022-08-27T04:33:09;6.60;;;3.50;;
10045;SDS011;5063;50.878;4.742;2022-08-27T04:35:36;5.27;;;3.77;;
10045;SDS011;5063;50.878;4.742;2022-08-27T04:38:02;5.97;;;3.90;;
10045;SDS011;5063;50.878;4.742;2022-08-27T04:40:28;8.67;;;3.80;;
10045;SDS011;5063;50.878;4.742;2022-08-27T04:43:26;7.70;;;3.90;;
10045;SDS011;5063;50.878;4.742;2022-08-27T04:45:52;5.93;;;4.17;;
10045;SDS011;5063;50.878;4.742;2022-08-27T04:48:18;6.73;;;3.80;;
10045;SDS011;5063;50.878;4.742;2022-08-27T04:50:44;7.50;;;4.63;;
10045;SDS011;5063;50.878;4.742;2022-08-27T04:53:12;8.83;;;4.63;;
10045;SDS011;5063;50.878;4.742;2022-08-27T04:55:49;7.30;;;3.80;;
10045;SDS011;5063;50.878;4.742;2022-08-27T04:58:17;7.00;;;3.93;;
10045;SDS011;5063;50.878;4.742;2022-08-27T05:00:54;6.03;;;4.27;;
10045;SDS011;5063;50.878;4.742;2022-08-27T05:03:24;7.53;;;4.30;;
10045;SDS011;5063;50.878;4.742;2022-08-27T05:05:50;5.93;;;4.20;;
10045;SDS011;5063;50.878;4.742;2022-08-27T05:08:17;8.47;;;3.70;;
10045;SDS011;5063;50.878;4.742;2022-08-27T05:10:45;6.10;;;3.93;;
10045;SDS011;5063;50.878;4.742;2022-08-27T05:13:13;8.57;;;4.03;;
10045;SDS011;5063;50.878;4.742;2022-08-27T05:15:39;10.27;;;4.20;;
10045;SDS011;5063;50.878;4.742;2022-08-27T05:18:06;4.03;;;3.60;;
10045;SDS011;5063;50.878;4.742;2022-08-27T05:20:33;9.37;;;4.40;;
10045;SDS011;5063;50.878;4.742;2022-08-27T05:23:10;5.57;;;3.93;;
10045;SDS011;5063;50.878;4.742;2022-08-27T05:25:38;4.47;;;3.70;;
10045;SDS011;5063;50.878;4.742;2022-08-27T05:28:05;6.10;;;4.63;;
10045;SDS011;5063;50.878;4.742;2022-08-27T05:30:36;5.97;;;3.70;;
10045;SDS011;5063;50.878;4.742;2022-08-27T05:33:03;7.60;;;4.23;;
10045;SDS011;5063;50.878;4.742;2022-08-27T05:35:29;7.63;;;4.10;;
10045;SDS011;5063;50.878;4.742;2022-08-27T05:37:56;6.90;;;3.80;;
10045;SDS011;5063;50.878;4.742;2022-08-27T05:40:24;5.63;;;4.27;;
10045;SDS011;5063;50.878;4.742;2022-08-27T05:42:50;4.40;;;4.00;;
10045;SDS011;5063;50.878;4.742;2022-08-27T05:45:15;5.73;;;3.63;;
10045;SDS011;5063;50.878;4.742;2022-08-27T05:47:41;6.57;;;4.67;;
10045;SDS011;5063;50.878;4.742;2022-08-27T05:50:07;7.43;;;4.27;;
10045;SDS011;5063;50.878;4.742;2022-08-27T05:52:34;7.47;;;3.97;;
10045;SDS011;5063;50.878;4.742;2022-08-27T05:55:00;8.50;;;4.17;;
10045;SDS011;5063;50.878;4.742;2022-08-27T05:57:26;8.17;;;4.47;;
10045;SDS011;5063;50.878;4.742;2022-08-27T05:59:52;8.17;;;4.57;;
10045;SDS011;5063;50.878;4.742;2022-08-27T06:02:36;6.27;;;4.20;;
10045;SDS011;5063;50.878;4.742;2022-08-27T06:05:03;8.13;;;4.63;;
10045;SDS011;5063;50.878;4.742;2022-08-27T06:07:29;6.07;;;4.00;;
10045;SDS011;5063;50.878;4.742;2022-08-27T06:09:56;6.80;;;4.07;;
10045;SDS011;5063;50.878;4.742;2022-08-27T06:12:23;5.87;;;4.07;;
10045;SDS011;5063;50.878;4.742;2022-08-27T06:14:49;6.20;;;3.97;;
10045;SDS011;5063;50.878;4.742;2022-08-27T06:17:15;6.33;;;3.97;;
10045;SDS011;5063;50.878;4.742;2022-08-27T06:19:41;6.93;;;4.43;;
10045;SDS011;5063;50.878;4.742;2022-08-27T06:22:07;6.20;;;4.43;;
10045;SDS011;5063;50.878;4.742;2022-08-27T06:24:33;7.50;;;4.00;;
10045;SDS011;5063;50.878;4.742;2022-08-27T06:27:00;5.93;;;4.20;;
10045;SDS011;5063;50.878;4.742;2022-08-27T06:29:25;6.57;;;3.73;;
10045;SDS011;5063;50.878;4.742;2022-08-27T06:31:51;6.77;;;3.70;;
10045;SDS011;5063;50.878;4.742;2022-08-27T06:34:20;7.57;;;3.77;;
10045;SDS011;5063;50.878;4.742;2022-08-27T06:36:46;4.97;;;3.57;;
10045;SDS011;5063;50.878;4.742;2022-08-27T06:39:12;7.13;;;3.70;;
10045;SDS011;5063;50.878;4.742;2022-08-27T06:41:40;5.53;;;3.97;;
10045;SDS011;5063;50.878;4.742;2022-08-27T06:44:07;7.87;;;3.80;;
10045;SDS011;5063;50.878;4.742;2022-08-27T06:46:33;6.20;;;3.40;;
10045;SDS011;5063;50.878;4.742;2022-08-27T06:49:00;3.70;;;2.83;;
10045;SDS011;5063;50.878;4.742;2022-08-27T06:51:28;6.30;;;3.20;;
10045;SDS011;5063;50.878;4.742;2022-08-27T06:53:57;3.87;;;2.57;;
10045;SDS011;5063;50.878;4.742;2022-08-27T06:56:24;4.87;;;3.43;;
10045;SDS011;5063;50.878;4.742;2022-08-27T06:58:51;7.93;;;3.13;;
10045;SDS011;5063;50.878;4.742;2022-08-27T07:01:22;4.90;;;3.03;;
10045;SDS011;5063;50.878;4.742;2022-08-27T07:03:52;7.90;;;3.50;;
10045;SDS011;5063;50.878;4.742;2022-08-27T07:06:19;6.63;;;2.90;;
10045;SDS011;5063;50.878;4.742;2022-08-27T07:08:45;9.37;;;3.00;;
10045;SDS011;5063;50.878;4.742;2022-08-27T07:11:11;3.87;;;2.47;;
10045;SDS011;5063;50.878;4.742;2022-08-27T07:13:38;5.63;;;2.80;;
10045;SDS011;5063;50.878;4.742;2022-08-27T07:16:06;8.10;;;3.20;;
10045;SDS011;5063;50.878;4.742;2022-08-27T07:18:35;4.10;;;2.80;;
10045;SDS011;5063;50.878;4.742;2022-08-27T07:21:02;5.67;;;2.80;;
10045;SDS011;5063;50.878;4.742;2022-08-27T07:23:29;5.80;;;2.73;;
10045;SDS011;5063;50.878;4.742;2022-08-27T07:25:56;5.37;;;2.53;;
10045;SDS011;5063;50.878;4.742;2022-08-27T07:28:22;6.17;;;2.50;;
10045;SDS011;5063;50.878;4.742;2022-08-27T07:30:48;4.00;;;2.63;;
10045;SDS011;5063;50.878;4.742;2022-08-27T07:33:14;6.57;;;2.60;;
10045;SDS011;5063;50.878;4.742;2022-08-27T07:35:40;6.27;;;2.43;;
10045;SDS011;5063;50.878;4.742;2022-08-27T07:38:05;3.47;;;2.53;;
10045;SDS011;5063;50.878;4.742;2022-08-27T07:40:35;6.67;;;2.93;;
10045;SDS011;5063;50.878;4.742;2022-08-27T07:43:02;3.57;;;2.37;;
10045;SDS011;5063;50.878;4.742;2022-08-27T07:45:48;6.87;;;2.67;;
10045;SDS011;5063;50.878;4.742;2022-08-27T07:48:16;6.27;;;2.40;;
10045;SDS011;5063;50.878;4.742;2022-08-27T07:50:43;5.23;;;2.33;;
10045;SDS011;5063;50.878;4.742;2022-08-27T07:53:09;3.70;;;2.50;;
10045;SDS011;5063;50.878;4.742;2022-08-27T07:55:35;3.33;;;2.40;;
10045;SDS011;5063;50.878;4.742;2022-08-27T07:58:02;4.87;;;2.60;;
10045;SDS011;5063;50.878;4.742;2022-08-27T08:00:28;4.90;;;2.33;;
10045;SDS011;5063;50.878;4.742;2022-08-27T08:02:54;5.20;;;2.47;;
10045;SDS011;5063;50.878;4.742;2022-08-27T08:05:19;3.53;;;2.37;;
10045;SDS011;5063;50.878;4.742;2022-08-27T08:07:45;5.83;;;2.60;;
10045;SDS011;5063;50.878;4.742;2022-08-27T08:10:11;4.33;;;2.50;;
10045;SDS011;5063;50.878;4.742;2022-08-27T08:12:37;4.90;;;2.53;;
10045;SDS011;5063;50.878;4.742;2022-08-27T08:15:05;2.70;;;1.87;;
10045;SDS011;5063;50.878;4.742;2022-08-27T08:17:33;4.30;;;2.47;;
10045;SDS011;5063;50.878;4.742;2022-08-27T08:19:59;5.95;;;2.35;;
10045;SDS011;5063;50.878;4.742;2022-08-27T08:22:26;5.07;;;2.30;;
10045;SDS011;5063;50.878;4.742;2022-08-27T08:24:52;6.63;;;2.07;;
10045;SDS011;5063;50.878;4.742;2022-08-27T08:27:18;4.03;;;2.33;;
10045;SDS011;5063;50.878;4.742;2022-08-27T08:29:45;5.10;;;2.63;;
10045;SDS011;5063;50.878;4.742;2022-08-27T08:32:11;4.63;;;2.40;;
10045;SDS011;5063;50.878;4.742;2022-08-27T08:34:37;3.60;;;2.10;;
10045;SDS011;5063;50.878;4.742;2022-08-27T08:37:03;6.53;;;2.33;;
10045;SDS011;5063;50.878;4.742;2022-08-27T08:39:30;4.10;;;2.37;;
10045;SDS011;5063;50.878;4.742;2022-08-27T08:41:57;4.00;;;2.23;;
10045;SDS011;5063;50.878;4.742;2022-08-27T08:44:30;8.50;;;2.25;;
10045;SDS011;5063;50.878;4.742;2022-08-27T08:47:09;5.38;;;2.13;;
10045;SDS011;5063;50.878;4.742;2022-08-27T08:49:41;3.15;;;1.80;;
10045;SDS011;5063;50.878;4.742;2022-08-27T08:52:20;3.67;;;2.20;;
10045;SDS011;5063;50.878;4.742;2022-08-27T08:57:48;3.72;;;1.83;;
10045;SDS011;5063;50.878;4.742;2022-08-27T09:00:19;4.75;;;2.30;;
10045;SDS011;5063;50.878;4.742;2022-08-27T09:02:47;6.07;;;2.50;;
10045;SDS011;5063;50.878;4.742;2022-08-27T09:05:16;2.65;;;1.60;;
10045;SDS011;5063;50.878;4.742;2022-08-27T09:10:24;3.08;;;1.45;;
10045;SDS011;5063;50.878;4.742;2022-08-27T09:12:51;4.25;;;1.95;;
10045;SDS011;5063;50.878;4.742;2022-08-27T09:15:21;4.85;;;1.77;;
10045;SDS011;5063;50.878;4.742;2022-08-27T09:17:49;4.38;;;2.05;;
10045;SDS011;5063;50.878;4.742;2022-08-27T09:20:19;5.68;;;1.50;;
10045;SDS011;5063;50.878;4.742;2022-08-27T09:22:55;2.58;;;1.52;;
10045;SDS011;5063;50.878;4.742;2022-08-27T09:25:33;3.00;;;1.83;;
10045;SDS011;5063;50.878;4.742;2022-08-27T09:28:07;4.45;;;1.70;;
10045;SDS011;5063;50.878;4.742;2022-08-27T09:30:57;3.35;;;1.80;;
10045;SDS011;5063;50.878;4.742;2022-08-27T09:33:29;2.70;;;1.60;;
10045;SDS011;5063;50.878;4.742;2022-08-27T09:35:55;5.25;;;1.95;;
10045;SDS011;5063;50.878;4.742;2022-08-27T09:38:27;3.13;;;1.80;;
10045;SDS011;5063;50.878;4.742;2022-08-27T09:41:00;3.78;;;1.60;;
10045;SDS011;5063;50.878;4.742;2022-08-27T09:43:30;2.53;;;1.20;;
10045;SDS011;5063;50.878;4.742;2022-08-27T09:45:58;4.55;;;2.10;;
10045;SDS011;5063;50.878;4.742;2022-08-27T09:48:45;3.85;;;1.80;;
10045;SDS011;5063;50.878;4.742;2022-08-27T09:51:12;2.17;;;1.50;;
10045;SDS011;5063;50.878;4.742;2022-08-27T09:53:46;4.03;;;1.70;;
10045;SDS011;5063;50.878;4.742;2022-08-27T09:56:24;4.38;;;1.70;;
10045;SDS011;5063;50.878;4.742;2022-08-27T09:59:04;2.97;;;1.40;;
10045;SDS011;5063;50.878;4.742;2022-08-27T10:01:36;3.55;;;1.88;;
10045;SDS011;5063;50.878;4.742;2022-08-27T10:04:23;2.53;;;1.52;;
10045;SDS011;5063;50.878;4.742;2022-08-27T10:07:21;4.85;;;1.65;;
10045;SDS011;5063;50.878;4.742;2022-08-27T10:10:07;6.22;;;1.75;;
10045;SDS011;5063;50.878;4.742;2022-08-27T10:15:19;3.67;;;1.75;;
10045;SDS011;5063;50.878;4.742;2022-08-27T10:18:02;2.67;;;1.48;;
10045;SDS011;5063;50.878;4.742;2022-08-27T10:34:02;2.08;;;1.45;;
10045;SDS011;5063;50.878;4.742;2022-08-27T10:42:38;9.18;;;2.20;;
10045;SDS011;5063;50.878;4.742;2022-08-27T10:45:17;1.95;;;1.60;;
10045;SDS011;5063;50.878;4.742;2022-08-27T10:54:14;3.00;;;2.00;;
10045;SDS011;5063;50.878;4.742;2022-08-27T10:57:00;4.47;;;1.70;;
10045;SDS011;5063;50.878;4.742;2022-08-27T11:02:46;3.75;;;1.67;;
10045;SDS011;5063;50.878;4.742;2022-08-27T11:10:35;4.88;;;2.15;;
10045;SDS011;5063;50.878;4.742;2022-08-27T11:13:09;5.18;;;1.80;;
10045;SDS011;5063;50.878;4.742;2022-08-27T11:15:40;3.35;;;1.40;;
10045;SDS011;5063;50.878;4.742;2022-08-27T11:23:26;3.28;;;1.77;;
10045;SDS011;5063;50.878;4.742;2022-08-27T11:25:58;2.97;;;1.60;;
10045;SDS011;5063;50.878;4.742;2022-08-27T11:28:34;2.50;;;1.80;;
10045;SDS011;5063;50.878;4.742;2022-08-27T11:33:37;4.53;;;2.10;;
10045;SDS011;5063;50.878;4.742;2022-08-27T11:39:13;3.40;;;1.95;;
10045;SDS011;5063;50.878;4.742;2022-08-27T11:44:42;3.20;;;1.77;;
10045;SDS011;5063;50.878;4.742;2022-08-27T11:47:21;2.78;;;1.50;;
10045;SDS011;5063;50.878;4.742;2022-08-27T11:49:53;6.60;;;2.10;;
10045;SDS011;5063;50.878;4.742;2022-08-27T11:52:28;4.05;;;1.88;;
10045;SDS011;5063;50.878;4.742;2022-08-27T11:55:13;4.68;;;2.05;;
10045;SDS011;5063;50.878;4.742;2022-08-27T11:58:03;4.57;;;1.50;;
10045;SDS011;5063;50.878;4.742;2022-08-27T12:00:50;4.70;;;2.25;;
10045;SDS011;5063;50.878;4.742;2022-08-27T12:03:27;5.47;;;2.00;;
10045;SDS011;5063;50.878;4.742;2022-08-27T12:24:40;6.30;;;2.17;;
10045;SDS011;5063;50.878;4.742;2022-08-27T12:29:50;2.75;;;1.75;;
10045;SDS011;5063;50.878;4.742;2022-08-27T12:34:59;4.07;;;2.13;;
10045;SDS011;5063;50.878;4.742;2022-08-27T12:37:44;3.63;;;2.28;;
10045;SDS011;5063;50.878;4.742;2022-08-27T12:42:49;4.43;;;2.30;;
10045;SDS011;5063;50.878;4.742;2022-08-27T12:45:20;5.85;;;2.28;;
10045;SDS011;5063;50.878;4.742;2022-08-27T12:47:48;6.20;;;2.03;;
10045;SDS011;5063;50.878;4.742;2022-08-27T12:50:18;4.95;;;2.25;;
10045;SDS011;5063;50.878;4.742;2022-08-27T12:52:54;5.30;;;2.20;;
10045;SDS011;5063;50.878;4.742;2022-08-27T13:04:31;3.40;;;2.00;;
10045;SDS011;5063;50.878;4.742;2022-08-27T13:07:01;5.35;;;1.80;;
10045;SDS011;5063;50.878;4.742;2022-08-27T13:09:28;3.83;;;2.10;;
10045;SDS011;5063;50.878;4.742;2022-08-27T13:11:57;3.70;;;1.90;;
10045;SDS011;5063;50.878;4.742;2022-08-27T13:14:25;2.38;;;1.80;;
10045;SDS011;5063;50.878;4.742;2022-08-27T13:16:54;3.85;;;1.95;;
10045;SDS011;5063;50.878;4.742;2022-08-27T13:20:10;2.72;;;1.70;;
10045;SDS011;5063;50.878;4.742;2022-08-27T13:22:20;3.47;;;2.38;;
10045;SDS011;5063;50.878;4.742;2022-08-27T13:24:49;3.85;;;2.17;;
10045;SDS011;5063;50.878;4.742;2022-08-27T13:27:22;4.88;;;1.63;;
10045;SDS011;5063;50.878;4.742;2022-08-27T13:29:50;4.15;;;1.77;;
10045;SDS011;5063;50.878;4.742;2022-08-27T13:32:16;1.70;;;1.60;;
10045;SDS011;5063;50.878;4.742;2022-08-27T13:34:42;3.95;;;1.83;;
10045;SDS011;5063;50.878;4.742;2022-08-27T13:37:21;3.70;;;1.77;;
10045;SDS011;5063;50.878;4.742;2022-08-27T13:39:53;4.35;;;1.58;;
10045;SDS011;5063;50.878;4.742;2022-08-27T13:42:21;3.85;;;1.70;;
10045;SDS011;5063;50.878;4.742;2022-08-27T13:44:49;4.60;;;2.00;;
10045;SDS011;5063;50.878;4.742;2022-08-27T13:47:25;4.18;;;2.35;;
10045;SDS011;5063;50.878;4.742;2022-08-27T13:50:03;3.90;;;2.22;;
10045;SDS011;5063;50.878;4.742;2022-08-27T13:52:35;2.92;;;1.90;;
10045;SDS011;5063;50.878;4.742;2022-08-27T13:55:23;4.18;;;1.70;;
10045;SDS011;5063;50.878;4.742;2022-08-27T13:57:50;2.88;;;1.45;;
10045;SDS011;5063;50.878;4.742;2022-08-27T14:00:23;4.68;;;2.20;;
10045;SDS011;5063;50.878;4.742;2022-08-27T14:02:55;3.60;;;2.00;;
10045;SDS011;5063;50.878;4.742;2022-08-27T14:07:49;3.67;;;2.03;;
10045;SDS011;5063;50.878;4.742;2022-08-27T14:10:36;4.18;;;1.83;;
10045;SDS011;5063;50.878;4.742;2022-08-27T14:13:06;2.65;;;2.00;;
10045;SDS011;5063;50.878;4.742;2022-08-27T14:15:44;7.13;;;2.47;;
10045;SDS011;5063;50.878;4.742;2022-08-27T14:20:49;3.00;;;2.03;;
10045;SDS011;5063;50.878;4.742;2022-08-27T14:23:16;7.28;;;2.28;;
10045;SDS011;5063;50.878;4.742;2022-08-27T14:25:42;3.60;;;2.38;;
10045;SDS011;5063;50.878;4.742;2022-08-27T14:28:08;3.85;;;2.45;;
10045;SDS011;5063;50.878;4.742;2022-08-27T14:30:34;1.98;;;1.80;;
10045;SDS011;5063;50.878;4.742;2022-08-27T14:33:00;4.60;;;1.92;;
10045;SDS011;5063;50.878;4.742;2022-08-27T14:35:27;4.63;;;2.50;;
10045;SDS011;5063;50.878;4.742;2022-08-27T14:37:55;2.60;;;2.20;;
10045;SDS011;5063;50.878;4.742;2022-08-27T14:40:22;3.05;;;2.00;;
10045;SDS011;5063;50.878;4.742;2022-08-27T14:42:48;5.07;;;2.22;;
10045;SDS011;5063;50.878;4.742;2022-08-27T14:45:13;3.40;;;2.00;;
10045;SDS011;5063;50.878;4.742;2022-08-27T14:47:39;6.45;;;2.65;;
10045;SDS011;5063;50.878;4.742;2022-08-27T14:50:07;3.75;;;1.98;;
10045;SDS011;5063;50.878;4.742;2022-08-27T14:52:35;5.03;;;2.33;;
10045;SDS011;5063;50.878;4.742;2022-08-27T14:55:01;3.47;;;2.17;;
10045;SDS011;5063;50.878;4.742;2022-08-27T14:57:27;3.22;;;1.88;;
10045;SDS011;5063;50.878;4.742;2022-08-27T14:59:53;2.75;;;2.10;;
10045;SDS011;5063;50.878;4.742;2022-08-27T15:02:18;3.95;;;2.10;;
10045;SDS011;5063;50.878;4.742;2022-08-27T15:04:45;3.50;;;1.95;;
10045;SDS011;5063;50.878;4.742;2022-08-27T15:07:11;3.65;;;2.25;;
10045;SDS011;5063;50.878;4.742;2022-08-27T15:09:37;3.88;;;2.40;;
10045;SDS011;5063;50.878;4.742;2022-08-27T15:12:03;4.97;;;2.15;;
10045;SDS011;5063;50.878;4.742;2022-08-27T15:14:30;10.63;;;2.65;;
10045;SDS011;5063;50.878;4.742;2022-08-27T15:16:57;4.95;;;2.33;;
10045;SDS011;5063;50.878;4.742;2022-08-27T15:19:23;3.47;;;2.42;;
10045;SDS011;5063;50.878;4.742;2022-08-27T15:21:50;3.67;;;1.98;;
10045;SDS011;5063;50.878;4.742;2022-08-27T15:24:18;4.35;;;2.20;;
10045;SDS011;5063;50.878;4.742;2022-08-27T15:26:46;3.70;;;1.90;;
10045;SDS011;5063;50.878;4.742;2022-08-27T15:29:13;4.90;;;2.22;;
10045;SDS011;5063;50.878;4.742;2022-08-27T15:31:38;4.30;;;2.20;;
10045;SDS011;5063;50.878;4.742;2022-08-27T15:34:05;3.67;;;1.90;;
10045;SDS011;5063;50.878;4.742;2022-08-27T15:36:31;4.55;;;2.38;;
10045;SDS011;5063;50.878;4.742;2022-08-27T15:38:57;4.68;;;2.42;;
10045;SDS011;5063;50.878;4.742;2022-08-27T15:41:23;3.78;;;2.50;;
10045;SDS011;5063;50.878;4.742;2022-08-27T15:43:49;4.35;;;2.55;;
10045;SDS011;5063;50.878;4.742;2022-08-27T15:46:14;4.13;;;2.40;;
10045;SDS011;5063;50.878;4.742;2022-08-27T15:48:40;2.72;;;1.90;;
10045;SDS011;5063;50.878;4.742;2022-08-27T15:51:08;4.90;;;2.40;;
10045;SDS011;5063;50.878;4.742;2022-08-27T15:53:35;3.30;;;2.03;;
10045;SDS011;5063;50.878;4.742;2022-08-27T15:56:02;9.30;;;2.60;;
10045;SDS011;5063;50.878;4.742;2022-08-27T15:58:30;5.25;;;2.20;;
10045;SDS011;5063;50.878;4.742;2022-08-27T16:01:04;5.68;;;2.50;;
10045;SDS011;5063;50.878;4.742;2022-08-27T16:03:36;4.75;;;3.30;;
10045;SDS011;5063;50.878;4.742;2022-08-27T16:06:03;5.07;;;2.17;;
10045;SDS011;5063;50.878;4.742;2022-08-27T16:08:29;5.32;;;2.15;;
10045;SDS011;5063;50.878;4.742;2022-08-27T16:10:56;6.00;;;2.47;;
10045;SDS011;5063;50.878;4.742;2022-08-27T16:13:22;4.10;;;2.53;;
10045;SDS011;5063;50.878;4.742;2022-08-27T16:15:48;3.65;;;2.15;;
10045;SDS011;5063;50.878;4.742;2022-08-27T16:18:15;2.53;;;2.28;;
10045;SDS011;5063;50.878;4.742;2022-08-27T16:20:46;3.80;;;2.67;;
10045;SDS011;5063;50.878;4.742;2022-08-27T16:23:12;10.82;;;6.18;;
10045;SDS011;5063;50.878;4.742;2022-08-27T16:25:37;5.63;;;2.90;;
10045;SDS011;5063;50.878;4.742;2022-08-27T16:28:03;6.50;;;2.72;;
10045;SDS011;5063;50.878;4.742;2022-08-27T16:30:29;6.88;;;2.80;;
10045;SDS011;5063;50.878;4.742;2022-08-27T16:32:55;4.07;;;2.20;;
10045;SDS011;5063;50.878;4.742;2022-08-27T16:35:22;4.43;;;2.22;;
10045;SDS011;5063;50.878;4.742;2022-08-27T16:37:49;3.97;;;2.10;;
10045;SDS011;5063;50.878;4.742;2022-08-27T16:40:15;4.85;;;2.33;;
10045;SDS011;5063;50.878;4.742;2022-08-27T16:42:42;4.65;;;2.35;;
10045;SDS011;5063;50.878;4.742;2022-08-27T16:45:10;3.20;;;2.00;;
10045;SDS011;5063;50.878;4.742;2022-08-27T16:47:37;3.75;;;2.10;;
10045;SDS011;5063;50.878;4.742;2022-08-27T16:50:22;5.85;;;2.15;;
10045;SDS011;5063;50.878;4.742;2022-08-27T16:52:58;3.30;;;2.20;;